createdAt,value
2022-10-22T00:00:01.437Z,9.457079
2022-10-22T00:01:01.433Z,9.457326
2022-10-22T00:02:01.567Z,9.457178
2022-10-22T00:03:01.489Z,9.457025
2022-10-22T00:04:01.410Z,9.457152
2022-10-22T00:05:01.387Z,9.457213
2022-10-22T00:06:01.387Z,9.457130
2022-10-22T00:07:01.350Z,9.457166
2022-10-22T00:08:01.350Z,9.457130
2022-10-22T00:09:01.375Z,9.457202
2022-10-22T00:10:01.331Z,9.457049
2022-10-22T00:11:01.329Z,9.457086
2022-10-22T00:12:01.338Z,9.457159
2022-10-22T00:13:01.308Z,9.457044
2022-10-22T00:14:01.291Z,9.456872
2022-10-22T00:15:01.268Z,9.457085
2022-10-22T00:16:01.290Z,9.457212
2022-10-22T00:17:01.261Z,9.456779
2022-10-22T00:18:01.249Z,9.457121
2022-10-22T00:19:01.226Z,9.457067
2022-10-22T00:20:01.227Z,9.457020
2022-10-22T00:21:01.230Z,9.457060
2022-10-22T00:22:01.206Z,9.457020
2022-10-22T00:23:01.196Z,9.457181
2022-10-22T00:24:01.190Z,9.457448
2022-10-22T00:25:01.176Z,9.457455
2022-10-22T00:26:01.190Z,9.457385
2022-10-22T00:27:01.150Z,9.457162
2022-10-22T00:28:01.157Z,9.457056
2022-10-22T00:29:01.143Z,9.457046
2022-10-22T00:30:01.128Z,9.457076
2022-10-22T00:31:01.134Z,9.457167
2022-10-22T00:32:01.114Z,9.457101
2022-10-22T00:33:01.102Z,9.457125
2022-10-22T00:34:01.098Z,9.457189
2022-10-22T00:35:01.072Z,9.457261
2022-10-22T00:36:01.094Z,9.457319
2022-10-22T00:37:01.060Z,9.457247
2022-10-22T00:38:01.049Z,9.457055
2022-10-22T00:39:01.037Z,9.457052
2022-10-22T00:40:01.038Z,9.457107
2022-10-22T00:42:01.020Z,9.457119
2022-10-22T00:43:00.991Z,9.457040
2022-10-22T00:44:01.022Z,9.457047
2022-10-22T00:45:01.027Z,9.457165
2022-10-22T00:46:00.990Z,9.457127
2022-10-22T00:47:00.961Z,9.457228
2022-10-22T00:48:00.957Z,9.457177
2022-10-22T00:49:00.947Z,9.456980
2022-10-22T00:50:01.038Z,9.457102
2022-10-22T00:51:00.928Z,9.456985
2022-10-22T00:52:00.914Z,9.457170
2022-10-22T00:53:00.899Z,9.457233
2022-10-22T00:54:00.896Z,9.457238
2022-10-22T00:55:00.889Z,9.457251
2022-10-22T00:56:00.901Z,9.457292
2022-10-22T00:57:00.863Z,9.456943
2022-10-22T00:58:00.846Z,9.457024
2022-10-22T00:59:00.902Z,9.457144
2022-10-22T01:00:00.830Z,9.457499
2022-10-22T01:01:00.939Z,9.457085
2022-10-22T01:02:00.820Z,9.457100
2022-10-22T01:03:00.802Z,9.456988
2022-10-22T01:04:00.798Z,9.456964
2022-10-22T01:05:00.792Z,9.457149
2022-10-22T01:06:00.779Z,9.457134
2022-10-22T01:07:00.764Z,9.457312
2022-10-22T01:08:00.806Z,9.457359
2022-10-22T01:09:00.799Z,9.457316
2022-10-22T01:10:00.726Z,9.457390
2022-10-22T01:11:00.740Z,9.457241
2022-10-22T01:12:00.713Z,9.457279
2022-10-22T01:13:00.708Z,9.457105
2022-10-22T01:14:00.683Z,9.457293
2022-10-22T01:15:00.704Z,9.457443
2022-10-22T01:16:00.687Z,9.457440
2022-10-22T01:17:00.671Z,9.457294
2022-10-22T01:18:00.655Z,9.457372
2022-10-22T01:19:00.652Z,9.457271
2022-10-22T01:20:00.631Z,9.457267
2022-10-22T01:21:00.661Z,9.457215
2022-10-22T01:22:00.610Z,9.457179
2022-10-22T01:23:00.589Z,9.457272
2022-10-22T01:24:01.596Z,9.457273
2022-10-22T01:25:00.586Z,9.457235
2022-10-22T01:26:00.584Z,9.457231
2022-10-22T01:27:00.567Z,9.457290
2022-10-22T01:28:00.560Z,9.457272
2022-10-22T01:29:00.550Z,9.457355
2022-10-22T01:30:00.533Z,9.457273
2022-10-22T01:31:00.542Z,9.457287
2022-10-22T01:32:00.510Z,9.457479
2022-10-22T01:33:00.502Z,9.457254
2022-10-22T01:34:00.494Z,9.457163
2022-10-22T01:35:00.480Z,9.457211
2022-10-22T01:36:00.493Z,9.457126
2022-10-22T01:37:00.456Z,9.457288
2022-10-22T01:38:00.453Z,9.457203
2022-10-22T01:39:00.437Z,9.457178
2022-10-22T01:40:00.428Z,9.457146
2022-10-22T01:41:00.432Z,9.457187
2022-10-22T01:42:00.414Z,9.457184
2022-10-22T01:43:00.409Z,9.457173
2022-10-22T01:44:00.390Z,9.457170
2022-10-22T01:45:00.379Z,9.457184
2022-10-22T01:46:00.386Z,9.457196
2022-10-22T01:47:00.361Z,9.457158
2022-10-22T01:48:00.351Z,9.457243
2022-10-22T01:49:00.334Z,9.457222
2022-10-22T01:50:00.329Z,9.457161
2022-10-22T01:51:00.342Z,9.457232
2022-10-22T01:52:00.310Z,9.457144
2022-10-22T01:53:00.294Z,9.457129
2022-10-22T01:54:00.291Z,9.457299
2022-10-22T01:55:00.277Z,9.457253
2022-10-22T01:56:00.289Z,9.457269
2022-10-22T01:57:00.266Z,9.457242
2022-10-22T01:58:00.245Z,9.457165
2022-10-22T01:59:00.239Z,9.457142
2022-10-22T02:00:00.224Z,9.457216
2022-10-22T02:01:00.343Z,9.457231
2022-10-22T02:02:00.223Z,9.457389
2022-10-22T02:03:00.204Z,9.457335
2022-10-22T02:04:00.192Z,9.457521
2022-10-22T02:05:00.186Z,9.457322
2022-10-22T02:06:00.195Z,9.457393
2022-10-22T02:07:00.177Z,9.457334
2022-10-22T02:08:00.171Z,9.457302
2022-10-22T02:09:00.192Z,9.457495
2022-10-22T02:10:00.132Z,9.457374
2022-10-22T02:11:00.193Z,9.457277
2022-10-22T02:12:00.182Z,9.457262
2022-10-22T02:13:00.102Z,9.457284
2022-10-22T02:14:00.086Z,9.457316
2022-10-22T02:15:00.088Z,9.457218
2022-10-22T02:16:00.083Z,9.457251
2022-10-22T02:17:00.049Z,9.457236
2022-10-22T02:18:00.048Z,9.457266
2022-10-22T02:19:00.037Z,9.457353
2022-10-22T02:20:00.038Z,9.457255
2022-10-22T02:21:00.087Z,9.457225
2022-10-22T02:22:00.013Z,9.457203
2022-10-22T02:22:59.996Z,9.457294
2022-10-22T02:23:59.987Z,9.457182
2022-10-22T02:24:59.975Z,9.457203
2022-10-22T02:25:59.986Z,9.457168
2022-10-22T02:26:59.955Z,9.457218
2022-10-22T02:27:59.943Z,9.457227
2022-10-22T02:28:59.937Z,9.457189
2022-10-22T02:29:59.931Z,9.457075
2022-10-22T02:30:59.936Z,9.457129
2022-10-22T02:31:59.910Z,9.457168
2022-10-22T02:32:59.901Z,9.457170
2022-10-22T02:33:59.891Z,9.457111
2022-10-22T02:34:59.883Z,9.457136
2022-10-22T02:35:59.898Z,9.457273
2022-10-22T02:36:59.862Z,9.457244
2022-10-22T02:37:59.843Z,9.457160
2022-10-22T02:38:59.835Z,9.457153
2022-10-22T02:39:59.832Z,9.457179
2022-10-22T02:40:59.826Z,9.457157
2022-10-22T02:41:59.804Z,9.457206
2022-10-22T02:42:59.797Z,9.457165
2022-10-22T02:43:59.794Z,9.457246
2022-10-22T02:44:59.775Z,9.457179
2022-10-22T02:45:59.796Z,9.457160
2022-10-22T02:46:59.778Z,9.457198
2022-10-22T02:47:59.744Z,9.457218
2022-10-22T02:49:00.728Z,9.457264
2022-10-22T02:49:59.729Z,9.457232
2022-10-22T02:50:59.749Z,9.457225
2022-10-22T02:51:59.715Z,9.457263
2022-10-22T02:52:59.689Z,9.457238
2022-10-22T02:53:59.696Z,9.457296
2022-10-22T02:54:59.693Z,9.457269
2022-10-22T02:55:59.691Z,9.457251
2022-10-22T02:56:59.646Z,9.457178
2022-10-22T02:57:59.652Z,9.457156
2022-10-22T02:58:59.647Z,9.457249
2022-10-22T02:59:59.625Z,9.457140
2022-10-22T03:00:59.700Z,9.457134
2022-10-22T03:01:59.612Z,9.457090
2022-10-22T03:02:59.602Z,9.457150
2022-10-22T03:03:59.594Z,9.457166
2022-10-22T03:04:59.566Z,9.457231
2022-10-22T03:05:59.588Z,9.457251
2022-10-22T03:06:59.557Z,9.457160
2022-10-22T03:07:59.566Z,9.457149
2022-10-22T03:09:00.588Z,9.457269
2022-10-22T03:09:59.526Z,9.457286
2022-10-22T03:10:59.518Z,9.457243
2022-10-22T03:11:59.532Z,9.457252
2022-10-22T03:12:59.499Z,9.457317
2022-10-22T03:13:59.484Z,9.457209
2022-10-22T03:14:59.485Z,9.457227
2022-10-22T03:15:59.471Z,9.457171
2022-10-22T03:16:59.482Z,9.457171
2022-10-22T03:17:59.449Z,9.457206
2022-10-22T03:18:59.442Z,9.457242
2022-10-22T03:19:59.431Z,9.457262
2022-10-22T03:20:59.400Z,9.457180
2022-10-22T03:21:59.423Z,9.457290
2022-10-22T03:22:59.397Z,9.457346
2022-10-22T03:23:59.421Z,9.457296
2022-10-22T03:24:59.377Z,9.457231
2022-10-22T03:27:00.380Z,9.457220
2022-10-22T03:27:59.346Z,9.457184
2022-10-22T03:28:59.334Z,9.457132
2022-10-22T03:29:59.334Z,9.457245
2022-10-22T03:30:59.327Z,9.457303
2022-10-22T03:31:59.325Z,9.457172
2022-10-22T03:32:59.303Z,9.457165
2022-10-22T03:33:59.335Z,9.457224
2022-10-22T03:35:59.275Z,9.457071
2022-10-22T03:36:59.281Z,9.457040
2022-10-22T03:37:59.258Z,9.457197
2022-10-22T03:38:59.243Z,9.457417
2022-10-22T03:39:59.241Z,9.457180
2022-10-22T03:40:59.230Z,9.457273
2022-10-22T03:41:59.230Z,9.457312
2022-10-22T03:42:59.203Z,9.457199
2022-10-22T03:43:59.197Z,9.457120
2022-10-22T03:44:59.187Z,9.457132
2022-10-22T03:45:59.185Z,9.457200
2022-10-22T03:47:01.743Z,9.457130
2022-10-22T03:47:59.161Z,9.457074
2022-10-22T03:48:59.134Z,9.457095
2022-10-22T03:49:59.139Z,9.457176
2022-10-22T03:50:59.130Z,9.457330
2022-10-22T03:51:59.143Z,9.457053
2022-10-22T03:52:59.097Z,9.457000
2022-10-22T03:53:59.104Z,9.457001
2022-10-22T03:54:59.090Z,9.456942
2022-10-22T03:55:59.069Z,9.457038
2022-10-22T03:56:59.086Z,9.457022
2022-10-22T03:57:59.059Z,9.457012
2022-10-22T03:58:59.040Z,9.456872
2022-10-22T03:59:59.040Z,9.457067
2022-10-22T04:00:59.108Z,9.457177
2022-10-22T04:01:59.036Z,9.457216
2022-10-22T04:02:59.007Z,9.457283
2022-10-22T04:03:59.001Z,9.457146
2022-10-22T04:04:59.073Z,9.457165
2022-10-22T04:05:58.981Z,9.457283
2022-10-22T04:06:58.984Z,9.457238
2022-10-22T04:07:58.956Z,9.457170
2022-10-22T04:08:58.988Z,9.457204
2022-10-22T04:09:58.940Z,9.457205
2022-10-22T04:10:58.934Z,9.457237
2022-10-22T04:11:58.932Z,9.457190
2022-10-22T04:12:58.930Z,9.457168
2022-10-22T04:13:58.894Z,9.457159
2022-10-22T04:14:58.893Z,9.457044
2022-10-22T04:15:58.874Z,9.457204
2022-10-22T04:16:58.887Z,9.457129
2022-10-22T04:17:58.856Z,9.457112
2022-10-22T04:18:58.850Z,9.457151
2022-10-22T04:19:58.835Z,9.457181
2022-10-22T04:20:58.822Z,9.457183
2022-10-22T04:21:58.831Z,9.457150
2022-10-22T04:22:58.816Z,9.457261
2022-10-22T04:23:58.789Z,9.457132
2022-10-22T04:24:58.796Z,9.457204
2022-10-22T04:25:58.780Z,9.457215
2022-10-22T04:26:58.789Z,9.457210
2022-10-22T04:27:58.749Z,9.457262
2022-10-22T04:28:58.750Z,9.457232
2022-10-22T04:29:58.742Z,9.457192
2022-10-22T04:30:58.727Z,9.457225
2022-10-22T04:31:58.740Z,9.457090
2022-10-22T04:32:58.720Z,9.457293
2022-10-22T04:33:58.701Z,9.457225
2022-10-22T04:34:58.689Z,9.457089
2022-10-22T04:35:58.679Z,9.457130
2022-10-22T04:36:58.681Z,9.457199
2022-10-22T04:37:58.717Z,9.457144
2022-10-22T04:38:58.650Z,9.457045
2022-10-22T04:39:58.633Z,9.457189
2022-10-22T04:40:58.630Z,9.457193
2022-10-22T04:41:58.639Z,9.457188
2022-10-22T04:42:58.611Z,9.457228
2022-10-22T04:43:58.605Z,9.457228
2022-10-22T04:44:58.588Z,9.457293
2022-10-22T04:45:58.584Z,9.457324
2022-10-22T04:46:58.588Z,9.457298
2022-10-22T04:47:58.567Z,9.457193
2022-10-22T04:48:58.553Z,9.457131
2022-10-22T04:49:58.542Z,9.457093
2022-10-22T04:50:58.533Z,9.457074
2022-10-22T04:51:58.540Z,9.457078
2022-10-22T04:52:58.515Z,9.457259
2022-10-22T04:53:58.509Z,9.457126
2022-10-22T04:54:58.503Z,9.457149
2022-10-22T04:55:58.489Z,9.457272
2022-10-22T04:56:58.501Z,9.457141
2022-10-22T04:57:58.477Z,9.457110
2022-10-22T04:58:58.459Z,9.457164
2022-10-22T04:59:58.453Z,9.457114
2022-10-22T05:00:58.469Z,9.457313
2022-10-22T05:01:58.446Z,9.457219
2022-10-22T05:02:58.411Z,9.457238
2022-10-22T05:03:59.405Z,9.457114
2022-10-22T05:04:58.401Z,9.457182
2022-10-22T05:05:58.391Z,9.457210
2022-10-22T05:06:58.405Z,9.457171
2022-10-22T05:07:58.357Z,9.457128
2022-10-22T05:08:58.438Z,9.457178
2022-10-22T05:09:58.355Z,9.457191
2022-10-22T05:10:58.332Z,9.457237
2022-10-22T05:11:58.340Z,9.457158
2022-10-22T05:12:58.324Z,9.457198
2022-10-22T05:13:58.306Z,9.457225
2022-10-22T05:14:58.326Z,9.457177
2022-10-22T05:15:58.291Z,9.457197
2022-10-22T05:16:58.324Z,9.457251
2022-10-22T05:17:58.275Z,9.457189
2022-10-22T05:18:58.256Z,9.457359
2022-10-22T05:19:58.246Z,9.457160
2022-10-22T05:20:58.241Z,9.457221
2022-10-22T05:21:58.242Z,9.457091
2022-10-22T05:22:58.218Z,9.457140
2022-10-22T05:23:58.201Z,9.457220
2022-10-22T05:24:58.195Z,9.457260
2022-10-22T05:25:58.185Z,9.457125
2022-10-22T05:26:58.238Z,9.457088
2022-10-22T05:28:00.232Z,9.457148
2022-10-22T05:28:58.165Z,9.457172
2022-10-22T05:29:58.150Z,9.457245
2022-10-22T05:30:58.139Z,9.457226
2022-10-22T05:31:58.145Z,9.457260
2022-10-22T05:32:58.118Z,9.457192
2022-10-22T05:33:58.110Z,9.457205
2022-10-22T05:34:58.096Z,9.457256
2022-10-22T05:35:58.090Z,9.457144
2022-10-22T05:36:58.101Z,9.457147
2022-10-22T05:37:58.076Z,9.457184
2022-10-22T05:38:58.055Z,9.457231
2022-10-22T05:40:06.787Z,9.457201
2022-10-22T05:40:59.032Z,9.457321
2022-10-22T05:41:58.046Z,9.457288
2022-10-22T05:42:58.014Z,9.457495
2022-10-22T05:43:58.001Z,9.457245
2022-10-22T05:45:29.908Z,9.457169
2022-10-22T05:45:57.995Z,9.457167
2022-10-22T05:46:57.995Z,9.457116
2022-10-22T05:47:57.968Z,9.457193
2022-10-22T05:48:57.966Z,9.457253
2022-10-22T05:49:57.959Z,9.457235
2022-10-22T05:50:57.936Z,9.457265
2022-10-22T05:51:58.949Z,9.457317
2022-10-22T05:52:57.924Z,9.457211
2022-10-22T05:53:57.900Z,9.457209
2022-10-22T05:54:57.913Z,9.457178
2022-10-22T05:55:57.894Z,9.457031
2022-10-22T05:56:57.903Z,9.457162
2022-10-22T05:57:57.874Z,9.457171
2022-10-22T05:58:57.905Z,9.457154
2022-10-22T05:59:57.856Z,9.457092
2022-10-22T06:00:57.840Z,9.457065
2022-10-22T06:01:57.928Z,9.457232
2022-10-22T06:02:57.832Z,9.457232
2022-10-22T06:03:57.814Z,9.457150
2022-10-22T06:04:57.810Z,9.457121
2022-10-22T06:05:57.803Z,9.457148
2022-10-22T06:06:57.805Z,9.457151
2022-10-22T06:07:57.791Z,9.457384
2022-10-22T06:08:57.823Z,9.457336
2022-10-22T06:09:57.757Z,9.457124
2022-10-22T06:10:57.750Z,9.457084
2022-10-22T06:11:57.752Z,9.457071
2022-10-22T06:12:57.726Z,9.457294
2022-10-22T06:13:57.719Z,9.457501
2022-10-22T06:14:57.707Z,9.457564
2022-10-22T06:15:57.695Z,9.457350
2022-10-22T06:16:57.697Z,9.457312
2022-10-22T06:17:57.670Z,9.457183
2022-10-22T06:18:57.661Z,9.457146
2022-10-22T06:19:57.659Z,9.457039
2022-10-22T06:20:57.652Z,9.457010
2022-10-22T06:21:57.650Z,9.457056
2022-10-22T06:22:57.620Z,9.457132
2022-10-22T06:23:57.610Z,9.457128
2022-10-22T06:24:57.603Z,9.457169
2022-10-22T06:25:57.594Z,9.457098
2022-10-22T06:26:57.607Z,9.457035
2022-10-22T06:27:57.574Z,9.456924
2022-10-22T06:28:57.653Z,9.456725
2022-10-22T06:29:57.548Z,9.456730
2022-10-22T06:30:57.549Z,9.456608
2022-10-22T06:31:57.556Z,9.456542
2022-10-22T06:32:57.530Z,9.456749
2022-10-22T06:33:57.530Z,9.456190
2022-10-22T06:34:57.509Z,9.455875
2022-10-22T06:35:57.504Z,9.456306
2022-10-22T06:36:57.516Z,9.456390
2022-10-22T06:37:57.480Z,9.457140
2022-10-22T06:38:57.474Z,9.457099
2022-10-22T06:39:57.465Z,9.457228
2022-10-22T06:40:57.457Z,9.457152
2022-10-22T06:41:57.460Z,9.457136
2022-10-22T06:42:57.437Z,9.457113
2022-10-22T06:43:57.818Z,9.457138
2022-10-22T06:44:57.440Z,9.457164
2022-10-22T06:45:57.398Z,9.457140
2022-10-22T06:46:57.409Z,9.457194
2022-10-22T06:47:57.387Z,9.457172
2022-10-22T06:48:57.492Z,9.457080
2022-10-22T06:49:57.354Z,9.457138
2022-10-22T06:50:57.350Z,9.457147
2022-10-22T06:51:57.358Z,9.457116
2022-10-22T06:52:57.341Z,9.457132
2022-10-22T06:53:57.394Z,9.457082
2022-10-22T06:54:57.309Z,9.457204
2022-10-22T06:55:57.328Z,9.457093
2022-10-22T06:56:57.308Z,9.457123
2022-10-22T06:57:57.275Z,9.457140
2022-10-22T06:58:57.275Z,9.457127
2022-10-22T06:59:57.252Z,9.457211
2022-10-22T07:00:57.307Z,9.457190
2022-10-22T07:01:57.258Z,9.457173
2022-10-22T07:02:59.208Z,9.457182
2022-10-22T07:03:57.230Z,9.457109
2022-10-22T07:04:57.210Z,9.457131
2022-10-22T07:05:57.186Z,9.457155
2022-10-22T07:06:57.206Z,9.457059
2022-10-22T07:07:57.180Z,9.456974
2022-10-22T07:08:57.392Z,9.456984
2022-10-22T07:09:57.153Z,9.457054
2022-10-22T07:10:57.148Z,9.457205
2022-10-22T07:11:57.173Z,9.457216
2022-10-22T07:12:57.141Z,9.457116
2022-10-22T07:13:57.134Z,9.457137
2022-10-22T07:14:57.118Z,9.457146
2022-10-22T07:15:57.112Z,9.457159
2022-10-22T07:16:57.120Z,9.457132
2022-10-22T07:17:57.100Z,9.457152
2022-10-22T07:18:57.087Z,9.457107
2022-10-22T07:19:57.079Z,9.457141
2022-10-22T07:20:57.063Z,9.457153
2022-10-22T07:21:57.072Z,9.457165
2022-10-22T07:22:57.042Z,9.457081
2022-10-22T07:23:57.038Z,9.457138
2022-10-22T07:24:57.029Z,9.457069
2022-10-22T07:26:57.018Z,9.457192
2022-10-22T07:27:56.998Z,9.457212
2022-10-22T07:28:56.985Z,9.457191
2022-10-22T07:29:56.970Z,9.457145
2022-10-22T07:30:56.965Z,9.457085
2022-10-22T07:31:56.973Z,9.457126
2022-10-22T07:32:56.949Z,9.457154
2022-10-22T07:33:56.928Z,9.457223
2022-10-22T07:34:56.925Z,9.457149
2022-10-22T07:35:56.913Z,9.457145
2022-10-22T07:36:56.926Z,9.457202
2022-10-22T07:37:56.895Z,9.457255
2022-10-22T07:38:56.887Z,9.457318
2022-10-22T07:40:00.227Z,9.457159
2022-10-22T07:40:58.869Z,9.457119
2022-10-22T07:41:56.861Z,9.457103
2022-10-22T07:42:56.848Z,9.457151
2022-10-22T07:43:56.833Z,9.457138
2022-10-22T07:44:56.832Z,9.457070
2022-10-22T07:45:56.802Z,9.457180
2022-10-22T07:46:56.822Z,9.457227
2022-10-22T07:47:56.796Z,9.457209
2022-10-22T07:48:56.790Z,9.457176
2022-10-22T07:49:56.769Z,9.457330
2022-10-22T07:50:56.774Z,9.457271
2022-10-22T07:51:56.783Z,9.457292
2022-10-22T07:52:58.225Z,9.457290
2022-10-22T07:53:56.745Z,9.457200
2022-10-22T07:54:56.734Z,9.457170
2022-10-22T07:55:56.722Z,9.457118
2022-10-22T07:56:56.739Z,9.457283
2022-10-22T07:57:56.700Z,9.457371
2022-10-22T07:58:56.829Z,9.457303
2022-10-22T07:59:56.686Z,9.457294
2022-10-22T08:00:56.669Z,9.457129
2022-10-22T08:01:56.679Z,9.457241
2022-10-22T08:02:56.645Z,9.457207
2022-10-22T08:03:56.635Z,9.457193
2022-10-22T08:04:56.629Z,9.457083
2022-10-22T08:05:56.634Z,9.457068
2022-10-22T08:06:56.624Z,9.457231
2022-10-22T08:07:56.603Z,9.457210
2022-10-22T08:08:56.660Z,9.457138
2022-10-22T08:09:56.578Z,9.457210
2022-10-22T08:10:56.567Z,9.457246
2022-10-22T08:11:56.573Z,9.457241
2022-10-22T08:12:56.550Z,9.457160
2022-10-22T08:13:56.532Z,9.457091
2022-10-22T08:14:56.532Z,9.457215
2022-10-22T08:15:57.694Z,9.457202
2022-10-22T08:16:57.559Z,9.457344
2022-10-22T08:17:56.511Z,9.457172
2022-10-22T08:18:56.493Z,9.457253
2022-10-22T08:19:56.481Z,9.457221
2022-10-22T08:20:56.475Z,9.457387
2022-10-22T08:21:56.485Z,9.457496
2022-10-22T08:22:56.453Z,9.457595
2022-10-22T08:23:56.534Z,9.457326
2022-10-22T08:24:56.441Z,9.457175
2022-10-22T08:25:56.427Z,9.457046
2022-10-22T08:26:56.438Z,9.457051
2022-10-22T08:27:56.410Z,9.457067
2022-10-22T08:28:56.403Z,9.456956
2022-10-22T08:29:56.395Z,9.457058
2022-10-22T08:30:56.382Z,9.457191
2022-10-22T08:31:56.385Z,9.457460
2022-10-22T08:32:56.364Z,9.457347
2022-10-22T08:33:56.345Z,9.457196
2022-10-22T08:34:56.344Z,9.457329
2022-10-22T08:35:56.327Z,9.457320
2022-10-22T08:36:56.344Z,9.457254
2022-10-22T08:37:56.310Z,9.457255
2022-10-22T08:38:56.305Z,9.457213
2022-10-22T08:39:56.288Z,9.457147
2022-10-22T08:40:56.282Z,9.457122
2022-10-22T08:41:56.302Z,9.457133
2022-10-22T08:42:56.265Z,9.457218
2022-10-22T08:43:56.252Z,9.457264
2022-10-22T08:44:56.243Z,9.457226
2022-10-22T08:45:56.233Z,9.457323
2022-10-22T08:46:56.241Z,9.457409
2022-10-22T08:47:56.209Z,9.457241
2022-10-22T08:48:56.250Z,9.457219
2022-10-22T08:49:56.191Z,9.457240
2022-10-22T08:50:56.177Z,9.457226
2022-10-22T08:51:56.183Z,9.457231
2022-10-22T08:52:56.156Z,9.456994
2022-10-22T08:53:56.153Z,9.456929
2022-10-22T08:54:56.141Z,9.456961
2022-10-22T08:55:56.130Z,9.456903
2022-10-22T08:56:56.135Z,9.457202
2022-10-22T08:57:56.118Z,9.457180
2022-10-22T08:58:56.106Z,9.457102
2022-10-22T08:59:56.096Z,9.457156
2022-10-22T09:00:56.087Z,9.457375
2022-10-22T09:01:56.085Z,9.457314
2022-10-22T09:02:56.055Z,9.457306
2022-10-22T09:03:56.055Z,9.457292
2022-10-22T09:04:56.050Z,9.457086
2022-10-22T09:05:56.043Z,9.457355
2022-10-22T09:06:56.051Z,9.457384
2022-10-22T09:07:56.013Z,9.457269
2022-10-22T09:08:56.074Z,9.457103
2022-10-22T09:09:55.997Z,9.457116
2022-10-22T09:10:55.997Z,9.457138
2022-10-22T09:11:55.994Z,9.457211
2022-10-22T09:12:55.963Z,9.457181
2022-10-22T09:13:55.955Z,9.457221
2022-10-22T09:14:55.946Z,9.457202
2022-10-22T09:15:55.936Z,9.457234
2022-10-22T09:16:55.947Z,9.457237
2022-10-22T09:17:55.914Z,9.457277
2022-10-22T09:18:55.903Z,9.457243
2022-10-22T09:19:55.897Z,9.457207
2022-10-22T09:20:55.886Z,9.457293
2022-10-22T09:21:55.889Z,9.457157
2022-10-22T09:22:55.861Z,9.457152
2022-10-22T09:23:55.853Z,9.457214
2022-10-22T09:24:55.829Z,9.457146
2022-10-22T09:25:55.830Z,9.457149
2022-10-22T09:26:55.845Z,9.457204
2022-10-22T09:27:55.821Z,9.457044
2022-10-22T09:28:55.802Z,9.457100
2022-10-22T09:29:55.793Z,9.457042
2022-10-22T09:30:55.819Z,9.457034
2022-10-22T09:31:55.786Z,9.457206
2022-10-22T09:32:55.757Z,9.457151
2022-10-22T09:33:55.753Z,9.457153
2022-10-22T09:34:55.747Z,9.457165
2022-10-22T09:35:55.746Z,9.457262
2022-10-22T09:36:55.739Z,9.457260
2022-10-22T09:37:55.715Z,9.457255
2022-10-22T09:38:55.700Z,9.457293
2022-10-22T09:39:55.693Z,9.457284
2022-10-22T09:40:55.690Z,9.457333
2022-10-22T09:41:55.684Z,9.457314
2022-10-22T09:42:55.660Z,9.457284
2022-10-22T09:43:55.659Z,9.457299
2022-10-22T09:44:55.647Z,9.457355
2022-10-22T09:45:55.634Z,9.457282
2022-10-22T09:46:55.641Z,9.457313
2022-10-22T09:48:01.872Z,9.457303
2022-10-22T09:48:57.603Z,9.457299
2022-10-22T09:49:55.595Z,9.457292
2022-10-22T09:50:55.577Z,9.457317
2022-10-22T09:51:55.659Z,9.457283
2022-10-22T09:52:55.573Z,9.457286
2022-10-22T09:53:55.559Z,9.457309
2022-10-22T09:54:55.546Z,9.457284
2022-10-22T09:56:55.546Z,9.457243
2022-10-22T09:57:55.522Z,9.457277
2022-10-22T09:58:55.517Z,9.457310
2022-10-22T09:59:55.504Z,9.457255
2022-10-22T10:00:55.523Z,9.457299
2022-10-22T10:01:55.489Z,9.457281
2022-10-22T10:02:55.506Z,9.457295
2022-10-22T10:03:55.464Z,9.457220
2022-10-22T10:04:55.463Z,9.457203
2022-10-22T10:05:55.441Z,9.457241
2022-10-22T10:06:55.445Z,9.457308
2022-10-22T10:07:55.419Z,9.457334
2022-10-22T10:08:55.413Z,9.457303
2022-10-22T10:09:55.393Z,9.457282
2022-10-22T10:10:55.386Z,9.457330
2022-10-22T10:11:55.397Z,9.457240
2022-10-22T10:12:55.365Z,9.457234
2022-10-22T10:13:55.361Z,9.457365
2022-10-22T10:14:55.353Z,9.457282
2022-10-22T10:15:55.342Z,9.457262
2022-10-22T10:16:55.394Z,9.457311
2022-10-22T10:17:55.321Z,9.457235
2022-10-22T10:18:55.305Z,9.457352
2022-10-22T10:19:57.794Z,9.457327
2022-10-22T10:20:55.290Z,9.457361
2022-10-22T10:21:55.297Z,9.457341
2022-10-22T10:22:55.266Z,9.457307
2022-10-22T10:23:55.260Z,9.457278
2022-10-22T10:24:55.248Z,9.457324
2022-10-22T10:25:55.245Z,9.457209
2022-10-22T10:26:55.256Z,9.457247
2022-10-22T10:27:55.305Z,9.457211
2022-10-22T10:28:55.222Z,9.457311
2022-10-22T10:29:55.202Z,9.457321
2022-10-22T10:30:55.188Z,9.457348
2022-10-22T10:31:55.192Z,9.457401
2022-10-22T10:32:55.173Z,9.457313
2022-10-22T10:33:55.169Z,9.457322
2022-10-22T10:34:55.161Z,9.457315
2022-10-22T10:35:55.156Z,9.457423
2022-10-22T10:36:55.150Z,9.457336
2022-10-22T10:37:55.177Z,9.457340
2022-10-22T10:38:55.109Z,9.457271
2022-10-22T10:39:55.109Z,9.457303
2022-10-22T10:40:55.097Z,9.457320
2022-10-22T10:41:55.102Z,9.457213
2022-10-22T10:42:55.071Z,9.457267
2022-10-22T10:43:55.072Z,9.457211
2022-10-22T10:44:55.053Z,9.457259
2022-10-22T10:45:55.804Z,9.457314
2022-10-22T10:46:55.060Z,9.457229
2022-10-22T10:47:55.027Z,9.457170
2022-10-22T10:48:55.019Z,9.457168
2022-10-22T10:49:54.997Z,9.457170
2022-10-22T10:50:54.997Z,9.457253
2022-10-22T10:51:54.998Z,9.457257
2022-10-22T10:52:54.978Z,9.457164
2022-10-22T10:53:54.967Z,9.457336
2022-10-22T10:54:54.956Z,9.457301
2022-10-22T10:55:54.952Z,9.457234
2022-10-22T10:56:54.950Z,9.457253
2022-10-22T10:57:54.933Z,9.457220
2022-10-22T10:58:54.925Z,9.457211
2022-10-22T10:59:54.910Z,9.457141
2022-10-22T11:00:54.892Z,9.457098
2022-10-22T11:01:54.970Z,9.457125
2022-10-22T11:03:54.862Z,9.457055
2022-10-22T11:04:54.859Z,9.457164
2022-10-22T11:05:54.869Z,9.457804
2022-10-22T11:07:05.889Z,9.457493
2022-10-22T11:07:56.439Z,9.457492
2022-10-22T11:08:54.850Z,9.457438
2022-10-22T11:09:55.803Z,9.457486
2022-10-22T11:10:54.815Z,9.457486
2022-10-22T11:11:54.790Z,9.457506
2022-10-22T11:12:54.779Z,9.457443
2022-10-22T11:13:54.765Z,9.457389
2022-10-22T11:14:54.769Z,9.457370
2022-10-22T11:15:54.755Z,9.457351
2022-10-22T11:16:54.737Z,9.457309
2022-10-22T11:17:54.730Z,9.457323
2022-10-22T11:18:54.722Z,9.457317
2022-10-22T11:19:57.929Z,9.457345
2022-10-22T11:20:55.718Z,9.457342
2022-10-22T11:21:54.688Z,9.457406
2022-10-22T11:23:17.756Z,9.457419
2022-10-22T11:23:56.679Z,9.457370
2022-10-22T11:24:54.668Z,9.457094
2022-10-22T11:25:54.669Z,9.457104
2022-10-22T11:26:54.637Z,9.457046
2022-10-22T11:27:56.624Z,9.456926
2022-10-22T11:28:54.618Z,9.457215
2022-10-22T11:29:54.609Z,9.457257
2022-10-22T11:30:54.623Z,9.457428
2022-10-22T11:31:54.591Z,9.457326
2022-10-22T11:32:54.581Z,9.457276
2022-10-22T11:34:00.537Z,9.457317
2022-10-22T11:34:56.567Z,9.457191
2022-10-22T11:35:54.565Z,9.457249
2022-10-22T11:36:54.539Z,9.457226
2022-10-22T11:37:54.532Z,9.457252
2022-10-22T11:38:54.524Z,9.457246
2022-10-22T11:39:54.506Z,9.457231
2022-10-22T11:40:54.520Z,9.457228
2022-10-22T11:41:54.491Z,9.456862
2022-10-22T11:42:54.482Z,9.457101
2022-10-22T11:43:54.470Z,9.456997
2022-10-22T11:44:54.467Z,9.457121
2022-10-22T11:45:54.467Z,9.457285
2022-10-22T11:46:54.431Z,9.457233
2022-10-22T11:47:54.429Z,9.457229
2022-10-22T11:48:54.414Z,9.457226
2022-10-22T11:49:54.406Z,9.457290